Time;durP1;ratioP1;P1;durP2;ratioP2;P2;SDS_P1;SDS_P2;PMS_P1;PMS_P2;Temp;Humidity;BMP_temperature;BMP_pressure;BME280_temperature;BME280_humidity;BME280_pressure;Samples;Min_cycle;Max_cycle;Signal;HPM_P1;HPM_P2
2023/05/25 00:00:32;;;;;;;23.57;11.10;;;8.30;99.90;;;-148.53;100.00;63986.66;5052097;28;20485;-76
2023/05/25 00:02:59;;;;;;;29.73;12.10;;;8.20;99.90;;;-148.53;100.00;63986.66;5051931;28;20102;-76
2023/05/25 00:05:26;;;;;;;24.25;10.98;;;8.00;99.90;;;-148.53;100.00;63986.66;5067377;28;20396;-76
2023/05/25 00:07:54;;;;;;;22.92;11.30;;;7.80;99.90;;;-148.53;100.00;63986.66;5052811;28;20118;-77
2023/05/25 00:10:20;;;;;;;24.48;11.13;;;7.70;99.90;;;-148.53;100.00;63986.66;5056163;28;20423;-77
2023/05/25 00:12:46;;;;;;;23.05;10.93;;;7.50;99.90;;;-148.53;100.00;63986.66;5051773;28;20044;-77
2023/05/25 00:15:12;;;;;;;24.60;11.20;;;7.40;99.90;;;-148.53;100.00;63986.66;5063344;28;20039;-77
2023/05/25 00:17:39;;;;;;;26.05;11.73;;;7.40;99.90;;;-148.53;100.00;63986.66;5051275;28;20045;-77
2023/05/25 00:20:07;;;;;;;27.92;10.90;;;7.30;99.90;;;-148.53;100.00;63986.66;5051548;28;20032;-77
2023/05/25 00:22:37;;;;;;;25.35;11.45;;;7.20;99.90;;;-148.53;100.00;63986.66;5051958;28;20039;-76
2023/05/25 00:25:05;;;;;;;21.30;11.45;;;7.10;99.90;;;-148.53;100.00;63986.66;5058289;28;20040;-76
2023/05/25 00:27:30;;;;;;;23.83;11.65;;;7.10;99.90;;;-148.53;100.00;63986.66;5056252;28;20532;-76
2023/05/25 00:29:57;;;;;;;29.00;12.45;;;7.10;99.90;;;-148.53;100.00;63986.66;5051688;28;20041;-77
2023/05/25 00:32:23;;;;;;;30.73;12.98;;;7.10;99.90;;;-148.53;100.00;63986.66;5054626;28;20087;-76
2023/05/25 00:34:49;;;;;;;31.27;12.80;;;7.00;99.90;;;-148.53;100.00;63986.66;5054188;28;22103;-77
2023/05/25 00:37:16;;;;;;;27.40;12.30;;;7.10;99.90;;;-148.53;100.00;63986.66;5052657;28;20040;-76
2023/05/25 00:39:42;;;;;;;29.45;13.38;;;7.10;99.90;;;-148.53;100.00;63986.66;5050293;28;20032;-77
2023/05/25 00:42:07;;;;;;;26.30;12.25;;;7.00;99.90;;;-148.53;100.00;63986.66;5066622;28;20052;-77
2023/05/25 00:44:33;;;;;;;31.23;12.77;;;6.90;99.90;;;-148.53;100.00;63986.66;5065697;28;20033;-77
2023/05/25 00:47:03;;;;;;;35.55;15.43;;;7.00;99.90;;;-148.53;100.00;63986.66;5050061;28;20029;-77
2023/05/25 00:49:34;;;;;;;38.70;13.63;;;6.90;99.90;;;-148.53;100.00;63986.66;5055262;28;20110;-77
2023/05/25 00:52:00;;;;;;;33.15;14.80;;;6.90;99.90;;;-148.53;100.00;63986.66;5051647;28;20478;-76
2023/05/25 00:54:26;;;;;;;34.38;14.02;;;6.80;99.90;;;-148.53;100.00;63986.66;5050262;28;20036;-77
2023/05/25 00:57:03;;;;;;;33.60;14.32;;;6.70;99.90;;;-148.53;100.00;63986.66;5049932;28;20473;-77
2023/05/25 00:59:43;;;;;;;33.88;15.05;;;6.80;99.90;;;-148.53;100.00;63986.66;5050553;28;20462;-77
2023/05/25 01:02:15;;;;;;;28.05;13.13;;;6.70;99.90;;;-148.53;100.00;63986.66;5065671;28;20025;-77
2023/05/25 01:04:48;;;;;;;28.90;13.43;;;6.60;99.90;;;-148.53;100.00;63986.66;5050196;28;20047;-77
2023/05/25 01:07:24;;;;;;;31.33;14.10;;;6.50;99.90;;;-148.53;100.00;63986.66;5049466;28;20037;-76
2023/05/25 01:09:58;;;;;;;32.40;13.75;;;6.40;99.90;;;-148.53;100.00;63986.66;5056174;28;20048;-76
2023/05/25 01:12:28;;;;;;;37.22;14.77;;;6.40;99.90;;;-148.53;100.00;63986.66;5054877;28;20507;-77
2023/05/25 01:14:55;;;;;;;37.85;16.20;;;6.40;99.90;;;-148.53;100.00;63986.66;5054691;28;20041;-77
2023/05/25 01:17:25;;;;;;;40.35;16.38;;;6.50;99.90;;;-148.53;100.00;63986.66;5051621;28;20465;-76
2023/05/25 01:19:51;;;;;;;45.57;17.13;;;6.60;99.90;;;-148.53;100.00;63986.66;5066853;28;20037;-76
2023/05/25 01:22:27;;;;;;;49.22;18.65;;;6.70;99.90;;;-148.53;100.00;63986.66;5072778;28;20040;-76
2023/05/25 01:25:00;;;;;;;48.08;18.33;;;6.90;99.90;;;-148.53;100.00;63986.66;5055184;28;20029;-77
2023/05/25 01:27:47;;;;;;;41.78;16.90;;;6.80;99.90;;;-148.53;100.00;63986.66;5060146;28;20111;-77
2023/05/25 01:30:15;;;;;;;45.20;18.38;;;6.80;99.90;;;-148.53;100.00;63986.66;5055787;28;20450;-77
2023/05/25 01:32:42;;;;;;;;;;;6.70;99.90;;;-148.53;100.00;63986.66;5054602;28;20064;-77
2023/05/25 01:35:10;;;;;;;40.63;16.20;;;6.60;99.90;;;-148.53;100.00;63986.66;5055209;28;19943;-77
2023/05/25 01:37:39;;;;;;;39.40;16.52;;;6.50;99.90;;;-148.53;100.00;63986.66;5059680;28;20036;-76
2023/05/25 01:40:05;;;;;;;36.53;15.80;;;6.40;99.90;;;-148.53;100.00;63986.66;5081406;28;20067;-78
2023/05/25 01:42:31;;;;;;;32.65;14.95;;;6.30;99.90;;;-148.53;100.00;63986.66;5055385;28;20025;-78
2023/05/25 01:44:59;;;;;;;42.47;16.85;;;6.30;99.90;;;-148.53;100.00;63986.66;5060548;28;20029;-76
2023/05/25 01:47:36;;;;;;;35.92;15.20;;;6.20;99.90;;;-148.53;100.00;63986.66;5053521;28;20037;-77
2023/05/25 01:50:50;;;;;;;35.88;16.58;;;6.10;99.90;;;-148.53;100.00;63986.66;5054671;28;20037;-77
2023/05/25 01:53:22;;;;;;;29.33;14.30;;;6.00;99.90;;;-148.53;100.00;63986.66;5057193;28;20124;-77
2023/05/25 01:55:58;;;;;;;34.13;15.43;;;5.90;99.90;;;-148.53;100.00;63986.66;5062375;28;20047;-78
2023/05/25 01:58:27;;;;;;;34.08;14.95;;;5.90;99.90;;;-148.53;100.00;63986.66;5058893;28;20064;-77
2023/05/25 02:00:57;;;;;;;33.35;14.95;;;5.80;99.90;;;-148.53;100.00;63986.66;5051788;28;20029;-77
2023/05/25 02:03:23;;;;;;;37.75;15.88;;;5.80;99.90;;;-148.53;100.00;63986.66;5053080;28;20029;-77
2023/05/25 02:05:50;;;;;;;45.30;16.33;;;5.70;99.90;;;-148.53;100.00;63986.66;5065118;28;20762;-78
2023/05/25 02:08:16;;;;;;;39.70;17.13;;;5.90;99.90;;;-148.53;100.00;63986.66;5069752;28;20037;-76
2023/05/25 02:10:42;;;;;;;44.00;17.27;;;6.10;99.90;;;-148.53;100.00;63986.66;5056499;28;20045;-77
2023/05/25 02:13:07;;;;;;;44.63;17.83;;;6.20;99.90;;;-148.53;100.00;63986.66;5066209;28;20078;-77
2023/05/25 02:15:33;;;;;;;49.45;18.67;;;6.20;99.90;;;-148.53;100.00;63986.66;5066273;28;20041;-77
2023/05/25 02:17:59;;;;;;;41.78;16.88;;;6.20;99.90;;;-148.53;100.00;63986.66;5074397;28;20039;-77
2023/05/25 02:20:27;;;;;;;36.22;14.88;;;6.00;99.90;;;-148.53;100.00;63986.66;5053647;28;20086;-78
2023/05/25 02:22:53;;;;;;;37.65;15.65;;;5.90;99.90;;;-148.53;100.00;63986.66;5057809;28;20488;-78
2023/05/25 02:25:19;;;;;;;34.28;15.55;;;5.90;99.90;;;-148.53;100.00;63986.66;5054697;28;20040;-78
2023/05/25 02:27:45;;;;;;;40.78;16.40;;;5.80;99.90;;;-148.53;100.00;63986.66;5068869;28;20089;-79
2023/05/25 02:30:11;;;;;;;42.78;16.60;;;6.00;99.90;;;-148.53;100.00;63986.66;5069615;28;20135;-80
2023/05/25 02:32:36;;;;;;;44.22;16.73;;;6.00;99.90;;;-148.53;100.00;63986.66;5057453;28;20029;-79
2023/05/25 02:35:03;;;;;;;51.03;18.48;;;6.00;99.90;;;-148.53;100.00;63986.66;5056020;28;20079;-79
2023/05/25 02:37:28;;;;;;;42.13;16.73;;;6.00;99.90;;;-148.53;100.00;63986.66;5054474;28;20453;-79
2023/05/25 02:39:54;;;;;;;43.33;16.45;;;5.90;99.90;;;-148.53;100.00;63986.66;5054595;28;20048;-79
2023/05/25 02:42:21;;;;;;;43.28;17.52;;;6.00;99.90;;;-148.53;100.00;63986.66;5052914;28;20041;-79
2023/05/25 02:44:47;;;;;;;46.00;19.05;;;6.00;99.90;;;-148.53;100.00;63986.66;5053838;28;20155;-79
2023/05/25 02:47:15;;;;;;;46.70;19.60;;;6.00;99.90;;;-148.53;100.00;63986.66;5069516;28;20029;-79
2023/05/25 02:49:41;;;;;;;44.72;17.83;;;6.10;99.90;;;-148.53;100.00;63986.66;5054820;28;20159;-79
2023/05/25 02:52:08;;;;;;;49.25;19.42;;;6.10;99.90;;;-148.53;100.00;63986.66;5057289;28;20075;-79
2023/05/25 02:54:35;;;;;;;43.55;18.33;;;6.10;99.90;;;-148.53;100.00;63986.66;5069538;28;20440;-78
2023/05/25 02:57:03;;;;;;;44.97;17.67;;;6.10;99.90;;;-148.53;100.00;63986.66;5077272;28;20044;-79
2023/05/25 02:59:29;;;;;;;46.58;18.23;;;6.20;99.90;;;-148.53;100.00;63986.66;5074696;28;20439;-79
2023/05/25 03:01:57;;;;;;;51.15;19.13;;;6.20;99.90;;;-148.53;100.00;63986.66;5054529;28;20070;-79
2023/05/25 03:04:23;;;;;;;48.85;19.35;;;6.30;99.90;;;-148.53;100.00;63986.66;5072902;28;20025;-79
2023/05/25 03:06:48;;;;;;;60.83;22.15;;;6.40;99.90;;;-148.53;100.00;63986.66;5058454;28;20370;-79
2023/05/25 03:09:17;;;;;;;59.75;21.75;;;6.60;99.90;;;-148.53;100.00;63986.66;5068885;28;20029;-79
2023/05/25 03:11:45;;;;;;;62.65;22.30;;;6.70;99.90;;;-148.53;100.00;63986.66;5073491;28;20037;-77
2023/05/25 03:14:14;;;;;;;63.70;22.73;;;6.80;99.90;;;-148.53;100.00;63986.66;5086685;28;20064;-78
2023/05/25 03:16:43;;;;;;;57.22;21.08;;;6.90;99.90;;;-148.53;100.00;63986.66;5053503;28;20048;-78
2023/05/25 03:19:11;;;;;;;64.82;23.55;;;6.90;99.90;;;-148.53;100.00;63986.66;5058184;28;20025;-78
2023/05/25 03:21:37;;;;;;;64.63;22.83;;;7.00;99.90;;;-148.53;100.00;63986.66;5054663;28;20057;-78
2023/05/25 03:24:03;;;;;;;62.80;23.45;;;7.10;99.90;;;-148.53;100.00;63986.66;5059333;28;20178;-78
2023/05/25 03:26:31;;;;;;;61.53;22.65;;;7.10;99.90;;;-148.53;100.00;63986.66;5061510;28;20024;-78
2023/05/25 03:28:56;;;;;;;61.88;23.75;;;7.20;99.90;;;-148.53;100.00;63986.66;5077788;28;20033;-78
2023/05/25 03:31:22;;;;;;;62.28;21.95;;;7.20;99.90;;;-148.53;100.00;63986.66;5068382;28;20056;-75
2023/05/25 03:33:48;;;;;;;56.42;22.58;;;7.40;99.90;;;-148.53;100.00;63986.66;5052321;28;20032;-77
2023/05/25 03:36:16;;;;;;;64.97;24.08;;;7.50;99.90;;;-148.53;100.00;63986.66;5055157;28;20025;-77
2023/05/25 03:38:43;;;;;;;65.78;23.65;;;7.60;99.90;;;-148.53;100.00;63986.66;5059366;28;20086;-77
2023/05/25 03:41:09;;;;;;;59.10;23.20;;;7.60;99.90;;;-148.53;100.00;63986.66;5053835;28;20037;-77
2023/05/25 03:43:36;;;;;;;55.55;22.85;;;7.70;99.90;;;-148.53;100.00;63986.66;5069677;28;20120;-77
2023/05/25 03:46:03;;;;;;;51.50;22.17;;;7.70;99.90;;;-148.53;100.00;63986.66;5051961;28;20071;-76
2023/05/25 03:48:29;;;;;;;52.65;21.95;;;7.80;99.90;;;-148.53;100.00;63986.66;5066557;28;20365;-76
2023/05/25 03:50:55;;;;;;;65.18;22.83;;;7.80;99.90;;;-148.53;100.00;63986.66;5065318;28;20024;-77
2023/05/25 03:53:21;;;;;;;54.50;22.85;;;7.90;99.90;;;-148.53;100.00;63986.66;5071023;28;20032;-76
2023/05/25 03:55:50;;;;;;;57.38;23.13;;;8.00;99.90;;;-148.53;100.00;63986.66;5092424;28;20035;-76
2023/05/25 03:58:17;;;;;;;51.15;21.23;;;8.00;99.90;;;-148.53;100.00;63986.66;5078462;28;20024;-78
2023/05/25 04:00:42;;;;;;;53.90;21.20;;;8.00;99.90;;;-148.53;100.00;63986.66;5081859;28;20135;-77
2023/05/25 04:03:09;;;;;;;49.80;21.42;;;8.00;99.90;;;-148.53;100.00;63986.66;5074719;28;20109;-76
2023/05/25 04:05:35;;;;;;;49.83;21.02;;;8.10;99.90;;;-148.53;100.00;63986.66;5079923;28;20040;-76
2023/05/25 04:08:02;;;;;;;50.20;21.02;;;8.20;99.90;;;-148.53;100.00;63986.66;5080144;28;20029;-78
2023/05/25 04:10:28;;;;;;;53.30;21.77;;;8.20;99.90;;;-148.53;100.00;63986.66;5089962;28;20071;-77
2023/05/25 04:12:55;;;;;;;40.83;19.15;;;8.20;99.90;;;-148.53;100.00;63986.66;5077411;28;20033;-78
2023/05/25 04:15:21;;;;;;;47.97;20.95;;;8.30;99.90;;;-148.53;100.00;63986.66;5084068;28;20033;-77
2023/05/25 04:18:01;;;;;;;52.33;20.85;;;8.30;99.90;;;-148.53;100.00;63986.66;5091117;28;20094;-76
2023/05/25 04:20:28;;;;;;;47.80;20.98;;;8.40;99.90;;;-148.53;100.00;63986.66;5081300;28;20025;-78
2023/05/25 04:22:56;;;;;;;44.58;21.20;;;8.50;99.90;;;-148.53;100.00;63986.66;5064168;28;20504;-77
2023/05/25 04:25:23;;;;;;;48.28;21.52;;;8.50;99.90;;;-148.53;100.00;63986.66;5072174;28;20047;-78
2023/05/25 04:27:48;;;;;;;43.38;20.13;;;8.50;99.90;;;-148.53;100.00;63986.66;5073475;28;20056;-77
2023/05/25 04:30:23;;;;;;;43.83;20.55;;;8.60;99.90;;;-148.53;100.00;63986.66;5061443;28;20132;-77
2023/05/25 04:33:04;;;;;;;44.67;20.85;;;8.60;99.90;;;-148.53;100.00;63986.66;5054764;28;20037;-77
2023/05/25 04:35:49;;;;;;;43.22;20.10;;;8.70;99.90;;;-148.53;100.00;63986.66;5077955;28;20045;-75
2023/05/25 04:38:16;;;;;;;47.88;21.17;;;8.80;99.90;;;-148.53;100.00;63986.66;5059699;28;20380;-76
2023/05/25 04:40:45;;;;;;;46.72;20.70;;;8.80;99.90;;;-148.53;100.00;63986.66;5068872;28;20041;-78
2023/05/25 04:43:12;;;;;;;44.63;20.63;;;8.90;99.90;;;-148.53;100.00;63986.66;5063963;28;20037;-79
2023/05/25 04:45:38;;;;;;;54.25;20.92;;;9.00;99.90;;;-148.53;100.00;63986.66;5073438;28;20153;-80
2023/05/25 04:48:06;;;;;;;;;;;9.10;99.90;;;-148.53;100.00;63986.66;5092883;28;20400;-80
2023/05/25 04:50:33;;;;;;;41.90;19.60;;;9.10;99.90;;;-148.53;100.00;63986.66;5053091;28;19917;-78
2023/05/25 04:52:59;;;;;;;38.78;19.85;;;9.20;99.90;;;-148.53;100.00;63986.66;5085610;28;20037;-82
2023/05/25 04:55:25;;;;;;;43.83;19.38;;;9.20;99.90;;;-148.53;100.00;63986.66;5056469;28;20245;-79
2023/05/25 04:57:52;;;;;;;43.10;20.83;;;9.30;99.90;;;-148.53;100.00;63986.66;5051060;28;20049;-77
2023/05/25 05:00:19;;;;;;;45.45;19.98;;;9.40;99.90;;;-148.53;100.00;63986.66;5053506;28;20021;-79
2023/05/25 05:02:45;;;;;;;41.45;21.23;;;9.50;99.90;;;-148.53;100.00;63986.66;5049869;28;20047;-79
2023/05/25 05:05:12;;;;;;;40.78;20.30;;;9.50;99.90;;;-148.53;100.00;63986.66;5067514;28;20033;-79
2023/05/25 05:07:38;;;;;;;39.17;19.83;;;9.50;99.90;;;-148.53;100.00;63986.66;5076865;28;20396;-77
2023/05/25 05:10:06;;;;;;;39.35;19.70;;;9.60;99.90;;;-148.53;100.00;63986.66;5049140;28;20345;-77
2023/05/25 05:12:33;;;;;;;41.35;20.30;;;9.70;99.90;;;-148.53;100.00;63986.66;5059765;28;20556;-77
2023/05/25 05:15:00;;;;;;;39.92;19.88;;;9.90;99.90;;;-148.53;100.00;63986.66;5059935;28;20033;-77
2023/05/25 05:17:27;;;;;;;38.78;19.52;;;10.00;99.90;;;-148.53;100.00;63986.66;5066098;28;20361;-77
2023/05/25 05:19:53;;;;;;;37.70;19.10;;;10.00;99.90;;;-148.53;100.00;63986.66;5075319;28;20033;-79
2023/05/25 05:22:19;;;;;;;32.60;18.65;;;10.00;99.90;;;-148.53;100.00;63986.66;5067953;28;20048;-78
2023/05/25 05:24:45;;;;;;;37.33;20.05;;;10.10;99.90;;;-148.53;100.00;63986.66;5054745;28;20086;-78
2023/05/25 05:27:15;;;;;;;37.53;19.20;;;10.10;99.90;;;-148.53;100.00;63986.66;5071229;28;20551;-78
2023/05/25 05:29:44;;;;;;;33.78;19.90;;;10.20;99.90;;;-148.53;100.00;63986.66;5087969;28;20094;-75
2023/05/25 05:32:10;;;;;;;42.45;22.58;;;10.20;99.90;;;-148.53;100.00;63986.66;5057136;28;20173;-75
2023/05/25 05:34:36;;;;;;;35.67;20.65;;;10.20;99.90;;;-148.53;100.00;63986.66;5053526;28;20052;-76
2023/05/25 05:37:07;;;;;;;41.15;22.90;;;10.10;99.90;;;-148.53;100.00;63986.66;5073483;28;20029;-76
2023/05/25 05:39:33;;;;;;;40.65;21.88;;;10.10;99.90;;;-148.53;100.00;63986.66;5059349;28;20357;-77
2023/05/25 05:41:58;;;;;;;38.83;21.33;;;10.20;99.90;;;-148.53;100.00;63986.66;5070016;28;20037;-77
2023/05/25 05:44:24;;;;;;;33.92;20.77;;;10.30;99.90;;;-148.53;100.00;63986.66;5055087;28;20404;-77
2023/05/25 05:46:50;;;;;;;38.88;20.20;;;10.30;99.90;;;-148.53;100.00;63986.66;5053174;28;20578;-77
2023/05/25 05:49:16;;;;;;;39.10;21.58;;;10.40;99.90;;;-148.53;100.00;63986.66;5054380;28;20029;-77
2023/05/25 05:51:42;;;;;;;37.60;20.40;;;10.40;99.90;;;-148.53;100.00;63986.66;5058225;28;20041;-77
2023/05/25 05:54:07;;;;;;;35.22;21.75;;;10.40;99.90;;;-148.53;100.00;63986.66;5054709;28;20028;-77
2023/05/25 05:56:33;;;;;;;37.30;21.58;;;10.50;99.90;;;-148.53;100.00;63986.66;5049218;28;20395;-77
2023/05/25 05:58:59;;;;;;;37.38;21.05;;;10.40;99.90;;;-148.53;100.00;63986.66;5054059;28;20043;-76
2023/05/25 06:01:25;;;;;;;37.50;23.02;;;10.50;99.90;;;-148.53;100.00;63986.66;5053312;28;20548;-77
2023/05/25 06:03:53;;;;;;;37.42;22.92;;;10.50;99.90;;;-148.53;100.00;63986.66;5054118;28;20033;-78
2023/05/25 06:06:20;;;;;;;35.77;21.47;;;10.40;99.90;;;-148.53;100.00;63986.66;5076692;28;20025;-77
2023/05/25 06:08:46;;;;;;;36.55;19.92;;;10.30;99.90;;;-148.53;100.00;63986.66;5057387;28;20800;-77
2023/05/25 06:11:11;;;;;;;39.65;21.80;;;10.10;99.90;;;-148.53;100.00;63986.66;5052835;28;20033;-76
2023/05/25 06:13:38;;;;;;;33.88;19.90;;;9.90;99.90;;;-148.53;100.00;63986.66;5053137;28;20033;-77
2023/05/25 06:16:05;;;;;;;32.70;20.02;;;10.00;99.90;;;-148.53;100.00;63986.66;5053284;28;20037;-77
2023/05/25 06:18:30;;;;;;;32.63;18.52;;;10.20;99.90;;;-148.53;100.00;63986.66;5066781;28;20049;-77
2023/05/25 06:20:56;;;;;;;34.20;16.85;;;10.10;99.90;;;-148.53;100.00;63986.66;5052082;28;20044;-77
2023/05/25 06:23:22;;;;;;;27.88;15.73;;;10.20;99.90;;;-148.53;100.00;63986.66;5053483;28;20037;-76
2023/05/25 06:25:51;;;;;;;31.20;18.17;;;10.20;99.90;;;-148.53;100.00;63986.66;5052050;28;20091;-77
2023/05/25 06:28:16;;;;;;;30.25;16.30;;;10.20;99.90;;;-148.53;100.00;63986.66;5053422;28;20048;-78
2023/05/25 06:30:42;;;;;;;28.13;15.98;;;10.20;99.90;;;-148.53;100.00;63986.66;5051988;28;20048;-76
2023/05/25 06:33:08;;;;;;;30.10;16.45;;;10.40;99.90;;;-148.53;100.00;63986.66;5068677;28;20029;-76
2023/05/25 06:35:35;;;;;;;20.67;12.20;;;10.40;99.90;;;-148.53;100.00;63986.66;5052284;28;20041;-77
2023/05/25 06:38:02;;;;;;;27.65;13.63;;;10.40;99.90;;;-148.53;100.00;63986.66;5053591;28;20039;-75
2023/05/25 06:40:27;;;;;;;24.70;13.98;;;10.20;99.90;;;-148.53;100.00;63986.66;5053163;28;20064;-75
2023/05/25 06:42:54;;;;;;;22.33;12.88;;;10.20;99.90;;;-148.53;100.00;63986.66;5057876;28;20028;-75
2023/05/25 06:45:39;;;;;;;24.92;12.50;;;10.40;99.90;;;-148.53;100.00;63986.66;5053128;28;20121;-75
2023/05/25 06:48:05;;;;;;;26.27;13.70;;;10.70;99.90;;;-148.53;100.00;63986.66;5063887;28;20141;-76
2023/05/25 06:50:31;;;;;;;24.17;12.40;;;10.80;99.90;;;-148.53;100.00;63986.66;5061820;28;20044;-76
2023/05/25 06:52:56;;;;;;;23.50;12.32;;;10.70;99.90;;;-148.53;100.00;63986.66;5054669;28;20365;-76
2023/05/25 06:55:22;;;;;;;24.88;12.68;;;10.60;99.90;;;-148.53;100.00;63986.66;5057395;28;20093;-75
2023/05/25 06:57:49;;;;;;;21.63;13.82;;;10.60;99.90;;;-148.53;100.00;63986.66;5053524;28;20040;-76
2023/05/25 07:00:15;;;;;;;25.83;13.52;;;10.60;99.90;;;-148.53;100.00;63986.66;5055991;28;20070;-76
2023/05/25 07:02:41;;;;;;;26.20;13.27;;;10.70;99.90;;;-148.53;100.00;63986.66;5052831;28;20151;-76
2023/05/25 07:05:07;;;;;;;20.92;11.75;;;10.70;99.90;;;-148.53;100.00;63986.66;5052540;28;20037;-76
2023/05/25 07:07:33;;;;;;;25.60;13.13;;;10.80;99.90;;;-148.53;100.00;63986.66;5059856;28;20112;-77
2023/05/25 07:09:58;;;;;;;23.25;12.88;;;10.70;99.90;;;-148.53;100.00;63986.66;5052665;28;20055;-77
2023/05/25 07:12:24;;;;;;;23.33;13.02;;;10.70;99.90;;;-148.53;100.00;63986.66;5052951;28;20028;-77
2023/05/25 07:14:50;;;;;;;21.05;11.90;;;11.00;99.90;;;-148.53;100.00;63986.66;5052837;28;20064;-76
2023/05/25 07:17:15;;;;;;;20.65;12.80;;;11.10;99.90;;;-148.53;100.00;63986.66;5053294;28;20036;-77
2023/05/25 07:19:42;;;;;;;22.35;12.35;;;11.20;99.90;;;-148.53;100.00;63986.66;5061831;28;20041;-76
2023/05/25 07:22:09;;;;;;;26.30;12.50;;;11.50;99.90;;;-148.53;100.00;63986.66;5052449;28;20110;-76
2023/05/25 07:24:36;;;;;;;20.15;10.48;;;11.70;99.90;;;-148.53;100.00;63986.66;5052780;28;20052;-76
2023/05/25 07:27:02;;;;;;;24.27;13.63;;;11.90;99.90;;;-148.53;100.00;63986.66;5051488;28;20052;-76
2023/05/25 07:29:28;;;;;;;19.77;11.75;;;12.00;99.90;;;-148.53;100.00;63986.66;5050315;28;20035;-76
2023/05/25 07:31:54;;;;;;;22.85;11.88;;;12.30;99.90;;;-148.53;100.00;63986.66;5050592;28;20507;-76
2023/05/25 07:34:19;;;;;;;20.00;10.82;;;12.40;99.90;;;-148.53;100.00;63986.66;5055577;28;20041;-76
2023/05/25 07:36:46;;;;;;;24.42;13.18;;;12.50;99.90;;;-148.53;100.00;63986.66;5052235;28;20037;-77
2023/05/25 07:39:12;;;;;;;22.02;12.30;;;12.80;99.90;;;-148.53;100.00;63986.66;5050704;28;20035;-76
2023/05/25 07:41:38;;;;;;;20.00;11.38;;;13.10;99.90;;;-148.53;100.00;63986.66;5055376;28;20045;-77
2023/05/25 07:44:04;;;;;;;16.80;10.05;;;13.30;99.90;;;-148.53;100.00;63986.66;5053613;28;20506;-78
2023/05/25 07:46:30;;;;;;;17.83;10.05;;;13.40;99.90;;;-148.53;100.00;63986.66;5054881;28;20037;-77
2023/05/25 07:48:58;;;;;;;15.63;9.95;;;13.60;99.90;;;-148.53;100.00;63986.66;5051749;28;20061;-76
2023/05/25 07:51:27;;;;;;;;;;;13.90;99.90;;;-148.53;100.00;63986.66;5057427;28;20111;-78
2023/05/25 07:53:55;;;;;;;16.98;8.90;;;13.80;99.90;;;-148.53;100.00;63986.66;5052036;28;19917;-77
2023/05/25 07:56:21;;;;;;;19.80;9.43;;;13.90;99.90;;;-148.53;100.00;63986.66;5052200;28;20183;-79
2023/05/25 07:58:47;;;;;;;17.15;8.20;;;13.90;99.90;;;-148.53;100.00;63986.66;5051649;28;20071;-78
2023/05/25 08:01:14;;;;;;;15.88;8.68;;;13.60;99.90;;;-148.53;100.00;63986.66;5051520;28;20056;-79
2023/05/25 08:03:41;;;;;;;16.17;8.53;;;13.60;99.90;;;-148.53;100.00;63986.66;5051775;28;20518;-78
2023/05/25 08:06:06;;;;;;;18.88;9.18;;;13.40;99.90;;;-148.53;100.00;63986.66;5051525;28;20293;-78
2023/05/25 08:08:33;;;;;;;16.83;9.15;;;13.30;99.90;;;-148.53;100.00;63986.66;5051454;28;20370;-78
2023/05/25 08:11:00;;;;;;;18.30;8.45;;;13.60;99.90;;;-148.53;100.00;63986.66;5051499;28;20044;-78
2023/05/25 08:13:25;;;;;;;16.35;8.65;;;13.70;99.90;;;-148.53;100.00;63986.66;5051721;28;20078;-78
2023/05/25 08:15:51;;;;;;;16.10;8.20;;;13.80;99.90;;;-148.53;100.00;63986.66;5058528;28;20041;-77
2023/05/25 08:18:18;;;;;;;15.73;8.38;;;13.80;99.90;;;-148.53;100.00;63986.66;5065957;28;20025;-77
2023/05/25 08:20:45;;;;;;;15.23;8.40;;;13.70;99.90;;;-148.53;100.00;63986.66;5062374;28;20047;-77
2023/05/25 08:23:10;;;;;;;16.08;7.88;;;13.60;99.90;;;-148.53;100.00;63986.66;5065860;28;20043;-76
2023/05/25 08:25:36;;;;;;;14.00;8.13;;;13.60;99.90;;;-148.53;100.00;63986.66;5064234;28;20036;-76
2023/05/25 08:28:02;;;;;;;19.08;7.57;;;14.20;99.90;;;-148.53;100.00;63986.66;5067996;28;20039;-77
2023/05/25 08:30:29;;;;;;;15.30;7.82;;;14.40;99.90;;;-148.53;100.00;63986.66;5063072;28;20052;-77
2023/05/25 08:32:55;;;;;;;16.52;8.10;;;14.10;99.90;;;-148.53;100.00;63986.66;5064231;28;20043;-76
2023/05/25 08:35:20;;;;;;;16.38;7.30;;;14.20;99.90;;;-148.53;100.00;63986.66;5063952;28;20036;-77
2023/05/25 08:37:46;;;;;;;12.68;6.88;;;14.80;99.90;;;-148.53;100.00;63986.66;5062322;28;20048;-78
2023/05/25 08:40:15;;;;;;;15.60;7.85;;;15.00;99.90;;;-148.53;100.00;63986.66;5066569;28;20041;-80
2023/05/25 08:42:43;;;;;;;16.55;8.20;;;14.70;99.90;;;-148.53;100.00;63986.66;5057921;28;20488;-75
2023/05/25 08:45:10;;;;;;;;;;;14.90;99.90;;;-148.53;100.00;63986.66;5054256;28;20115;-75
2023/05/25 08:47:41;;;;;;;18.83;8.02;;;14.80;99.90;;;-148.53;100.00;63986.66;5060366;28;19927;-78
2023/05/25 08:50:10;;;;;;;18.02;8.68;;;14.30;99.90;;;-148.53;100.00;63986.66;5054678;28;20045;-77
2023/05/25 08:52:39;;;;;;;20.13;8.52;;;14.50;99.90;;;-148.53;100.00;63986.66;5061541;28;20492;-77
2023/05/25 08:55:08;;;;;;;15.93;8.43;;;14.20;99.90;;;-148.53;100.00;63986.66;5056258;28;20049;-76
2023/05/25 08:58:05;;;;;;;16.75;8.30;;;14.20;99.90;;;-148.53;100.00;63986.66;5063734;28;20083;-77
2023/05/25 09:00:41;;;;;;;16.48;7.88;;;14.30;99.90;;;-148.53;100.00;63986.66;5067855;28;20147;-78
2023/05/25 09:03:16;;;;;;;13.10;7.65;;;14.50;99.90;;;-148.53;100.00;63986.66;5053463;28;20037;-77
2023/05/25 09:05:42;;;;;;;14.90;8.57;;;14.50;99.90;;;-148.53;100.00;63986.66;5057081;28;20041;-77
2023/05/25 09:08:09;;;;;;;15.15;8.25;;;14.80;99.90;;;-148.53;100.00;63986.66;5062563;28;20087;-76
2023/05/25 09:10:38;;;;;;;17.27;9.00;;;15.00;99.90;;;-148.53;100.00;63986.66;5067113;28;20033;-78
2023/05/25 09:13:05;;;;;;;18.48;8.93;;;14.40;99.90;;;-148.53;100.00;63986.66;5060147;28;20036;-78
2023/05/25 09:15:33;;;;;;;17.73;8.85;;;13.80;99.90;;;-148.53;100.00;63986.66;5077111;28;20067;-79
2023/05/25 09:17:59;;;;;;;18.08;9.23;;;14.00;99.90;;;-148.53;100.00;63986.66;5069165;28;20061;-76
2023/05/25 09:20:30;;;;;;;14.23;8.23;;;14.10;99.90;;;-148.53;100.00;63986.66;5063906;28;20068;-76
2023/05/25 09:22:59;;;;;;;15.68;7.95;;;14.00;99.90;;;-148.53;100.00;63986.66;5070149;28;20123;-77
2023/05/25 09:25:27;;;;;;;13.93;6.88;;;13.80;99.90;;;-148.53;100.00;63986.66;5062123;28;20061;-77
2023/05/25 09:27:57;;;;;;;16.02;7.90;;;13.60;99.90;;;-148.53;100.00;63986.66;5067699;28;20048;-76
2023/05/25 09:30:23;;;;;;;13.30;7.50;;;13.70;99.90;;;-148.53;100.00;63986.66;5068030;28;20124;-77
2023/05/25 09:32:50;;;;;;;14.95;6.88;;;14.20;99.90;;;-148.53;100.00;63986.66;5060592;28;20041;-76
2023/05/25 09:35:16;;;;;;;15.82;7.10;;;14.90;99.90;;;-148.53;100.00;63986.66;5063449;28;20028;-76
2023/05/25 09:37:43;;;;;;;13.98;7.20;;;15.20;99.90;;;-148.53;100.00;63986.66;5054580;28;20045;-76
2023/05/25 09:40:10;;;;;;;15.20;7.57;;;15.20;99.90;;;-148.53;100.00;63986.66;5063857;28;20029;-76
2023/05/25 09:42:37;;;;;;;16.33;7.40;;;15.40;99.90;;;-148.53;100.00;63986.66;5065617;28;20111;-77
2023/05/25 09:45:04;;;;;;;14.07;7.17;;;;;;;-148.53;100.00;63986.66;5058624;28;20079;-77
2023/05/25 09:47:31;;;;;;;14.35;7.35;;;15.80;99.90;;;-148.53;100.00;63986.66;5069469;28;20037;-76
2023/05/25 09:49:57;;;;;;;15.63;7.20;;;15.70;99.90;;;-148.53;100.00;63986.66;5061399;28;20098;-77
2023/05/25 09:52:23;;;;;;;17.02;7.07;;;15.70;99.90;;;-148.53;100.00;63986.66;5068081;28;20059;-77
2023/05/25 09:54:50;;;;;;;15.32;6.68;;;15.40;99.90;;;-148.53;100.00;63986.66;5053881;28;20135;-77